sensor_id;sensor_type;location;lat;lon;timestamp;temperature;humidity
19031;DHT22;9648;51.130;13.978;2022-10-16T00:00:33;14.00;99.90
19031;DHT22;9648;51.130;13.978;2022-10-16T00:03:01;14.00;99.90
19031;DHT22;9648;51.130;13.978;2022-10-16T00:05:28;13.90;99.90
19031;DHT22;9648;51.130;13.978;2022-10-16T00:07:55;13.90;99.90
19031;DHT22;9648;51.130;13.978;2022-10-16T00:10:22;13.90;99.90
19031;DHT22;9648;51.130;13.978;2022-10-16T00:12:50;13.80;99.90
19031;DHT22;9648;51.130;13.978;2022-10-16T00:15:17;13.80;99.90
19031;DHT22;9648;51.130;13.978;2022-10-16T00:17:44;13.80;99.90
19031;DHT22;9648;51.130;13.978;2022-10-16T00:20:10;13.70;99.90
19031;DHT22;9648;51.130;13.978;2022-10-16T00:22:37;13.60;99.90
19031;DHT22;9648;51.130;13.978;2022-10-16T00:25:05;13.60;99.90
19031;DHT22;9648;51.130;13.978;2022-10-16T00:27:33;13.50;99.90
19031;DHT22;9648;51.130;13.978;2022-10-16T00:30:01;13.50;99.90
19031;DHT22;9648;51.130;13.978;2022-10-16T00:32:28;13.40;99.90
19031;DHT22;9648;51.130;13.978;2022-10-16T00:34:56;13.40;99.90
19031;DHT22;9648;51.130;13.978;2022-10-16T00:37:22;13.30;99.90
19031;DHT22;9648;51.130;13.978;2022-10-16T00:39:49;13.30;99.90
19031;DHT22;9648;51.130;13.978;2022-10-16T00:42:17;13.30;99.90
19031;DHT22;9648;51.130;13.978;2022-10-16T00:44:47;13.30;99.90
19031;DHT22;9648;51.130;13.978;2022-10-16T00:47:19;13.30;99.90
19031;DHT22;9648;51.130;13.978;2022-10-16T00:49:48;13.20;99.90
19031;DHT22;9648;51.130;13.978;2022-10-16T00:52:16;13.20;99.90
19031;DHT22;9648;51.130;13.978;2022-10-16T00:54:44;13.20;99.90
19031;DHT22;9648;51.130;13.978;2022-10-16T00:57:12;13.20;99.90
19031;DHT22;9648;51.130;13.978;2022-10-16T00:59:41;13.20;99.90
19031;DHT22;9648;51.130;13.978;2022-10-16T01:02:10;13.20;99.90
19031;DHT22;9648;51.130;13.978;2022-10-16T01:04:41;13.10;99.90
19031;DHT22;9648;51.130;13.978;2022-10-16T01:07:14;13.10;99.90
19031;DHT22;9648;51.130;13.978;2022-10-16T01:09:51;13.10;99.90
19031;DHT22;9648;51.130;13.978;2022-10-16T01:12:30;13.10;99.90
19031;DHT22;9648;51.130;13.978;2022-10-16T01:15:06;13.10;99.90
19031;DHT22;9648;51.130;13.978;2022-10-16T01:17:40;13.10;99.90
19031;DHT22;9648;51.130;13.978;2022-10-16T01:20:14;13.10;99.90
19031;DHT22;9648;51.130;13.978;2022-10-16T01:22:57;13.10;99.90
19031;DHT22;9648;51.130;13.978;2022-10-16T01:25:36;13.10;99.90
19031;DHT22;9648;51.130;13.978;2022-10-16T01:28:09;13.10;99.90
19031;DHT22;9648;51.130;13.978;2022-10-16T01:30:40;13.20;99.90
19031;DHT22;9648;51.130;13.978;2022-10-16T01:33:12;13.30;99.90
19031;DHT22;9648;51.130;13.978;2022-10-16T01:35:43;13.40;99.90
19031;DHT22;9648;51.130;13.978;2022-10-16T01:38:16;13.40;99.90
19031;DHT22;9648;51.130;13.978;2022-10-16T01:40:47;13.50;99.90
19031;DHT22;9648;51.130;13.978;2022-10-16T01:43:20;13.50;99.90
19031;DHT22;9648;51.130;13.978;2022-10-16T01:45:47;13.60;99.90
19031;DHT22;9648;51.130;13.978;2022-10-16T01:48:18;13.60;99.90
19031;DHT22;9648;51.130;13.978;2022-10-16T01:50:58;13.60;99.90
19031;DHT22;9648;51.130;13.978;2022-10-16T01:53:26;13.60;99.90
19031;DHT22;9648;51.130;13.978;2022-10-16T01:55:55;13.70;99.90
19031;DHT22;9648;51.130;13.978;2022-10-16T01:58:25;13.70;99.90
19031;DHT22;9648;51.130;13.978;2022-10-16T02:00:56;13.70;99.90
19031;DHT22;9648;51.130;13.978;2022-10-16T02:03:23;13.70;99.90
19031;DHT22;9648;51.130;13.978;2022-10-16T02:05:52;13.80;99.90
19031;DHT22;9648;51.130;13.978;2022-10-16T02:08:20;13.80;99.90
19031;DHT22;9648;51.130;13.978;2022-10-16T02:10:49;13.90;99.90
19031;DHT22;9648;51.130;13.978;2022-10-16T02:13:20;13.90;99.90
19031;DHT22;9648;51.130;13.978;2022-10-16T02:15:49;13.90;99.90
19031;DHT22;9648;51.130;13.978;2022-10-16T02:18:16;13.90;99.90
19031;DHT22;9648;51.130;13.978;2022-10-16T02:20:57;13.90;99.90
19031;DHT22;9648;51.130;13.978;2022-10-16T02:23:32;14.00;99.90
19031;DHT22;9648;51.130;13.978;2022-10-16T02:26:04;14.00;99.90
19031;DHT22;9648;51.130;13.978;2022-10-16T02:28:36;14.00;99.90
19031;DHT22;9648;51.130;13.978;2022-10-16T02:31:09;14.00;99.90
19031;DHT22;9648;51.130;13.978;2022-10-16T02:33:39;14.00;99.90
19031;DHT22;9648;51.130;13.978;2022-10-16T02:36:07;14.00;99.90
19031;DHT22;9648;51.130;13.978;2022-10-16T02:38:35;14.00;99.90
19031;DHT22;9648;51.130;13.978;2022-10-16T02:41:02;14.10;99.90
19031;DHT22;9648;51.130;13.978;2022-10-16T02:43:29;14.10;99.90
19031;DHT22;9648;51.130;13.978;2022-10-16T02:45:56;14.10;99.90
19031;DHT22;9648;51.130;13.978;2022-10-16T02:48:24;14.10;99.90
19031;DHT22;9648;51.130;13.978;2022-10-16T02:50:51;14.20;99.90
19031;DHT22;9648;51.130;13.978;2022-10-16T02:53:18;14.20;99.90
19031;DHT22;9648;51.130;13.978;2022-10-16T02:55:45;14.20;99.90
19031;DHT22;9648;51.130;13.978;2022-10-16T02:58:12;14.20;99.90
19031;DHT22;9648;51.130;13.978;2022-10-16T03:00:39;14.20;99.90
19031;DHT22;9648;51.130;13.978;2022-10-16T03:03:06;14.20;99.90
19031;DHT22;9648;51.130;13.978;2022-10-16T03:05:34;14.30;99.90
19031;DHT22;9648;51.130;13.978;2022-10-16T03:08:00;14.20;99.90
19031;DHT22;9648;51.130;13.978;2022-10-16T03:10:27;14.30;99.90
19031;DHT22;9648;51.130;13.978;2022-10-16T03:12:55;14.30;99.90
19031;DHT22;9648;51.130;13.978;2022-10-16T03:15:21;14.30;99.90
19031;DHT22;9648;51.130;13.978;2022-10-16T03:17:48;14.30;99.90
19031;DHT22;9648;51.130;13.978;2022-10-16T03:20:15;14.30;99.90
19031;DHT22;9648;51.130;13.978;2022-10-16T03:22:43;14.30;99.90
19031;DHT22;9648;51.130;13.978;2022-10-16T03:25:10;14.40;99.90
19031;DHT22;9648;51.130;13.978;2022-10-16T03:27:37;14.40;99.90
19031;DHT22;9648;51.130;13.978;2022-10-16T03:30:04;14.40;99.90
19031;DHT22;9648;51.130;13.978;2022-10-16T03:32:31;14.40;99.90
19031;DHT22;9648;51.130;13.978;2022-10-16T03:34:58;14.40;99.90
19031;DHT22;9648;51.130;13.978;2022-10-16T03:37:25;14.40;99.90
19031;DHT22;9648;51.130;13.978;2022-10-16T03:39:53;14.40;99.90
19031;DHT22;9648;51.130;13.978;2022-10-16T03:42:20;14.40;99.90
19031;DHT22;9648;51.130;13.978;2022-10-16T03:44:47;14.40;99.90
19031;DHT22;9648;51.130;13.978;2022-10-16T03:47:14;14.40;99.90
19031;DHT22;9648;51.130;13.978;2022-10-16T03:49:40;14.40;99.90
19031;DHT22;9648;51.130;13.978;2022-10-16T03:52:07;14.40;99.90
19031;DHT22;9648;51.130;13.978;2022-10-16T03:54:34;14.30;99.90
19031;DHT22;9648;51.130;13.978;2022-10-16T03:57:02;14.40;99.90
19031;DHT22;9648;51.130;13.978;2022-10-16T03:59:29;14.40;99.90
19031;DHT22;9648;51.130;13.978;2022-10-16T04:01:56;14.40;99.90
19031;DHT22;9648;51.130;13.978;2022-10-16T04:04:23;14.40;99.90
19031;DHT22;9648;51.130;13.978;2022-10-16T04:06:50;14.40;99.90
19031;DHT22;9648;51.130;13.978;2022-10-16T04:09:17;14.40;99.90
19031;DHT22;9648;51.130;13.978;2022-10-16T04:11:44;14.40;99.90
19031;DHT22;9648;51.130;13.978;2022-10-16T04:14:12;14.40;99.90
19031;DHT22;9648;51.130;13.978;2022-10-16T04:16:39;14.40;99.90
19031;DHT22;9648;51.130;13.978;2022-10-16T04:19:05;14.30;99.90
19031;DHT22;9648;51.130;13.978;2022-10-16T04:21:32;14.30;99.90
19031;DHT22;9648;51.130;13.978;2022-10-16T04:23:59;14.30;99.90
19031;DHT22;9648;51.130;13.978;2022-10-16T04:26:26;14.30;99.90
19031;DHT22;9648;51.130;13.978;2022-10-16T04:28:53;14.20;99.90
19031;DHT22;9648;51.130;13.978;2022-10-16T04:31:21;14.20;99.90
19031;DHT22;9648;51.130;13.978;2022-10-16T04:33:48;14.30;99.90
19031;DHT22;9648;51.130;13.978;2022-10-16T04:36:15;14.20;99.90
19031;DHT22;9648;51.130;13.978;2022-10-16T04:38:41;14.20;99.90
19031;DHT22;9648;51.130;13.978;2022-10-16T04:41:08;14.20;99.90
19031;DHT22;9648;51.130;13.978;2022-10-16T04:43:35;14.20;99.90
19031;DHT22;9648;51.130;13.978;2022-10-16T04:46:02;14.20;99.90
19031;DHT22;9648;51.130;13.978;2022-10-16T04:48:31;14.10;99.90
19031;DHT22;9648;51.130;13.978;2022-10-16T04:50:59;14.10;99.90
19031;DHT22;9648;51.130;13.978;2022-10-16T04:53:26;14.10;99.90
19031;DHT22;9648;51.130;13.978;2022-10-16T04:55:53;14.10;99.90
19031;DHT22;9648;51.130;13.978;2022-10-16T04:58:19;14.10;99.90
19031;DHT22;9648;51.130;13.978;2022-10-16T05:00:46;14.10;99.90
19031;DHT22;9648;51.130;13.978;2022-10-16T05:03:13;14.10;99.90
19031;DHT22;9648;51.130;13.978;2022-10-16T05:05:44;14.10;99.90
19031;DHT22;9648;51.130;13.978;2022-10-16T05:08:11;14.10;99.90
19031;DHT22;9648;51.130;13.978;2022-10-16T05:10:38;14.00;99.90
19031;DHT22;9648;51.130;13.978;2022-10-16T05:13:05;14.00;99.90
19031;DHT22;9648;51.130;13.978;2022-10-16T05:15:32;14.00;99.90
19031;DHT22;9648;51.130;13.978;2022-10-16T05:17:59;13.90;99.90
19031;DHT22;9648;51.130;13.978;2022-10-16T05:20:26;13.90;99.90
19031;DHT22;9648;51.130;13.978;2022-10-16T05:22:54;13.90;99.90
19031;DHT22;9648;51.130;13.978;2022-10-16T05:25:21;13.90;99.90
19031;DHT22;9648;51.130;13.978;2022-10-16T05:27:48;13.90;99.90
19031;DHT22;9648;51.130;13.978;2022-10-16T05:30:16;13.90;99.90
19031;DHT22;9648;51.130;13.978;2022-10-16T05:32:46;13.80;99.90
19031;DHT22;9648;51.130;13.978;2022-10-16T05:35:13;13.80;99.90
19031;DHT22;9648;51.130;13.978;2022-10-16T05:37:40;13.80;99.90
19031;DHT22;9648;51.130;13.978;2022-10-16T05:40:09;13.80;99.90
19031;DHT22;9648;51.130;13.978;2022-10-16T05:42:37;13.80;99.90
19031;DHT22;9648;51.130;13.978;2022-10-16T05:45:05;13.80;99.90
19031;DHT22;9648;51.130;13.978;2022-10-16T05:47:32;13.80;99.90
19031;DHT22;9648;51.130;13.978;2022-10-16T05:49:59;13.90;99.90
19031;DHT22;9648;51.130;13.978;2022-10-16T05:52:26;13.90;99.90
19031;DHT22;9648;51.130;13.978;2022-10-16T05:54:53;14.00;99.90
19031;DHT22;9648;51.130;13.978;2022-10-16T05:57:22;14.00;99.90
19031;DHT22;9648;51.130;13.978;2022-10-16T05:59:48;14.10;99.90
19031;DHT22;9648;51.130;13.978;2022-10-16T06:02:15;14.10;99.90
19031;DHT22;9648;51.130;13.978;2022-10-16T06:04:42;14.20;99.90
19031;DHT22;9648;51.130;13.978;2022-10-16T06:07:09;14.30;99.90
19031;DHT22;9648;51.130;13.978;2022-10-16T06:09:36;14.30;99.90
19031;DHT22;9648;51.130;13.978;2022-10-16T06:12:03;14.30;99.90
19031;DHT22;9648;51.130;13.978;2022-10-16T06:14:31;14.40;99.90
19031;DHT22;9648;51.130;13.978;2022-10-16T06:16:58;14.40;99.90
19031;DHT22;9648;51.130;13.978;2022-10-16T06:19:24;14.40;99.90
19031;DHT22;9648;51.130;13.978;2022-10-16T06:21:51;14.50;99.90
19031;DHT22;9648;51.130;13.978;2022-10-16T06:24:18;14.50;99.90
19031;DHT22;9648;51.130;13.978;2022-10-16T06:26:45;14.60;99.90
19031;DHT22;9648;51.130;13.978;2022-10-16T06:29:12;14.60;99.90
19031;DHT22;9648;51.130;13.978;2022-10-16T06:31:40;14.50;99.90
19031;DHT22;9648;51.130;13.978;2022-10-16T06:34:09;14.60;99.90
19031;DHT22;9648;51.130;13.978;2022-10-16T06:36:37;14.60;99.90
19031;DHT22;9648;51.130;13.978;2022-10-16T06:39:04;14.60;99.90
19031;DHT22;9648;51.130;13.978;2022-10-16T06:41:33;14.60;99.90
19031;DHT22;9648;51.130;13.978;2022-10-16T06:44:00;14.70;99.90
19031;DHT22;9648;51.130;13.978;2022-10-16T06:46:27;14.70;99.90
19031;DHT22;9648;51.130;13.978;2022-10-16T06:48:55;14.70;99.90
19031;DHT22;9648;51.130;13.978;2022-10-16T06:51:23;14.70;99.90
19031;DHT22;9648;51.130;13.978;2022-10-16T06:53:52;14.70;99.90
19031;DHT22;9648;51.130;13.978;2022-10-16T06:56:21;14.70;99.90
19031;DHT22;9648;51.130;13.978;2022-10-16T06:58:48;14.80;99.90
19031;DHT22;9648;51.130;13.978;2022-10-16T07:01:16;14.90;99.90
19031;DHT22;9648;51.130;13.978;2022-10-16T07:03:44;15.00;99.90
19031;DHT22;9648;51.130;13.978;2022-10-16T07:06:14;15.10;99.90
19031;DHT22;9648;51.130;13.978;2022-10-16T07:08:44;15.10;99.90
19031;DHT22;9648;51.130;13.978;2022-10-16T07:11:13;15.20;99.90
19031;DHT22;9648;51.130;13.978;2022-10-16T07:13:41;15.30;99.90
19031;DHT22;9648;51.130;13.978;2022-10-16T07:16:10;15.40;99.90
19031;DHT22;9648;51.130;13.978;2022-10-16T07:18:38;15.50;99.90
19031;DHT22;9648;51.130;13.978;2022-10-16T07:21:06;15.70;99.90
19031;DHT22;9648;51.130;13.978;2022-10-16T07:23:35;15.70;99.90
19031;DHT22;9648;51.130;13.978;2022-10-16T07:26:02;15.70;99.90
19031;DHT22;9648;51.130;13.978;2022-10-16T07:28:29;15.70;99.90
19031;DHT22;9648;51.130;13.978;2022-10-16T07:31:00;15.80;99.90
19031;DHT22;9648;51.130;13.978;2022-10-16T07:33:27;15.80;99.90
19031;DHT22;9648;51.130;13.978;2022-10-16T07:35:55;15.80;99.90
19031;DHT22;9648;51.130;13.978;2022-10-16T07:38:22;15.90;99.90
19031;DHT22;9648;51.130;13.978;2022-10-16T07:40:56;15.90;99.90
19031;DHT22;9648;51.130;13.978;2022-10-16T07:43:23;16.00;99.90
19031;DHT22;9648;51.130;13.978;2022-10-16T07:45:50;16.00;99.90
19031;DHT22;9648;51.130;13.978;2022-10-16T07:48:17;16.00;99.90
19031;DHT22;9648;51.130;13.978;2022-10-16T07:50:45;16.00;99.90
19031;DHT22;9648;51.130;13.978;2022-10-16T07:53:12;16.00;99.90
19031;DHT22;9648;51.130;13.978;2022-10-16T07:55:40;16.10;99.90
19031;DHT22;9648;51.130;13.978;2022-10-16T07:58:08;16.10;99.90
19031;DHT22;9648;51.130;13.978;2022-10-16T08:00:36;16.10;99.90
19031;DHT22;9648;51.130;13.978;2022-10-16T08:03:03;16.20;99.90
19031;DHT22;9648;51.130;13.978;2022-10-16T08:05:32;16.30;99.90
19031;DHT22;9648;51.130;13.978;2022-10-16T08:07:59;16.40;99.90
19031;DHT22;9648;51.130;13.978;2022-10-16T08:10:27;16.30;99.90
19031;DHT22;9648;51.130;13.978;2022-10-16T08:12:54;16.40;99.90
19031;DHT22;9648;51.130;13.978;2022-10-16T08:15:23;16.40;99.90
19031;DHT22;9648;51.130;13.978;2022-10-16T08:17:57;16.50;99.90
19031;DHT22;9648;51.130;13.978;2022-10-16T08:20:24;16.60;99.90
19031;DHT22;9648;51.130;13.978;2022-10-16T08:22:52;16.70;99.90
19031;DHT22;9648;51.130;13.978;2022-10-16T08:25:19;16.80;99.90
19031;DHT22;9648;51.130;13.978;2022-10-16T08:27:46;17.00;99.90
19031;DHT22;9648;51.130;13.978;2022-10-16T08:30:13;17.10;99.90
19031;DHT22;9648;51.130;13.978;2022-10-16T08:32:42;17.00;99.90
19031;DHT22;9648;51.130;13.978;2022-10-16T08:35:09;17.00;99.90
19031;DHT22;9648;51.130;13.978;2022-10-16T08:37:36;17.10;99.90
19031;DHT22;9648;51.130;13.978;2022-10-16T08:40:04;17.00;99.90
19031;DHT22;9648;51.130;13.978;2022-10-16T08:42:45;17.10;99.90
19031;DHT22;9648;51.130;13.978;2022-10-16T08:45:33;17.20;99.90
19031;DHT22;9648;51.130;13.978;2022-10-16T08:48:13;17.30;99.90
19031;DHT22;9648;51.130;13.978;2022-10-16T08:50:41;17.40;99.90
19031;DHT22;9648;51.130;13.978;2022-10-16T08:53:15;17.50;99.90
19031;DHT22;9648;51.130;13.978;2022-10-16T08:55:46;17.60;99.90
19031;DHT22;9648;51.130;13.978;2022-10-16T08:58:16;17.60;99.90
19031;DHT22;9648;51.130;13.978;2022-10-16T09:00:47;17.60;99.90
19031;DHT22;9648;51.130;13.978;2022-10-16T09:03:24;17.60;99.90
19031;DHT22;9648;51.130;13.978;2022-10-16T09:06:05;17.60;99.90
19031;DHT22;9648;51.130;13.978;2022-10-16T09:08:42;17.50;99.90
19031;DHT22;9648;51.130;13.978;2022-10-16T09:11:16;17.50;99.90
19031;DHT22;9648;51.130;13.978;2022-10-16T09:13:49;17.60;99.90
19031;DHT22;9648;51.130;13.978;2022-10-16T09:16:21;17.60;99.90
19031;DHT22;9648;51.130;13.978;2022-10-16T09:18:57;17.70;99.90
19031;DHT22;9648;51.130;13.978;2022-10-16T09:21:28;17.70;99.90
19031;DHT22;9648;51.130;13.978;2022-10-16T09:23:58;17.80;99.90
19031;DHT22;9648;51.130;13.978;2022-10-16T09:26:25;17.80;99.90
19031;DHT22;9648;51.130;13.978;2022-10-16T09:28:53;17.80;99.90
19031;DHT22;9648;51.130;13.978;2022-10-16T09:31:22;17.90;99.90
19031;DHT22;9648;51.130;13.978;2022-10-16T09:33:55;18.00;99.90
19031;DHT22;9648;51.130;13.978;2022-10-16T09:36:26;18.10;99.90
19031;DHT22;9648;51.130;13.978;2022-10-16T09:39:03;18.20;99.90
19031;DHT22;9648;51.130;13.978;2022-10-16T09:41:30;18.30;99.90
19031;DHT22;9648;51.130;13.978;2022-10-16T09:44:02;18.40;99.90
19031;DHT22;9648;51.130;13.978;2022-10-16T09:46:31;18.50;99.90
19031;DHT22;9648;51.130;13.978;2022-10-16T09:49:20;18.50;99.90
19031;DHT22;9648;51.130;13.978;2022-10-16T09:51:47;18.50;99.90
19031;DHT22;9648;51.130;13.978;2022-10-16T09:54:16;18.60;99.90
19031;DHT22;9648;51.130;13.978;2022-10-16T09:56:43;18.70;99.90
19031;DHT22;9648;51.130;13.978;2022-10-16T09:59:13;18.80;99.90
19031;DHT22;9648;51.130;13.978;2022-10-16T10:01:43;18.90;99.90
19031;DHT22;9648;51.130;13.978;2022-10-16T10:04:11;18.90;99.90
19031;DHT22;9648;51.130;13.978;2022-10-16T10:06:43;18.90;99.90
19031;DHT22;9648;51.130;13.978;2022-10-16T10:09:17;18.90;99.90
19031;DHT22;9648;51.130;13.978;2022-10-16T10:11:50;19.00;99.90
19031;DHT22;9648;51.130;13.978;2022-10-16T10:14:30;19.10;99.90
19031;DHT22;9648;51.130;13.978;2022-10-16T10:17:17;19.20;99.90
19031;DHT22;9648;51.130;13.978;2022-10-16T10:19:50;19.30;99.90
19031;DHT22;9648;51.130;13.978;2022-10-16T10:22:23;19.30;99.90
19031;DHT22;9648;51.130;13.978;2022-10-16T10:25:26;19.40;99.90
19031;DHT22;9648;51.130;13.978;2022-10-16T10:28:18;19.40;99.90
19031;DHT22;9648;51.130;13.978;2022-10-16T10:30:52;19.40;99.90
19031;DHT22;9648;51.130;13.978;2022-10-16T10:33:28;19.40;99.90
19031;DHT22;9648;51.130;13.978;2022-10-16T10:36:05;19.40;99.90
19031;DHT22;9648;51.130;13.978;2022-10-16T10:38:43;19.40;99.90
19031;DHT22;9648;51.130;13.978;2022-10-16T10:44:21;19.60;99.90
19031;DHT22;9648;51.130;13.978;2022-10-16T10:46:56;19.90;99.90
19031;DHT22;9648;51.130;13.978;2022-10-16T10:49:35;20.10;99.90
19031;DHT22;9648;51.130;13.978;2022-10-16T10:52:18;20.40;99.90
19031;DHT22;9648;51.130;13.978;2022-10-16T10:54:58;20.60;99.90
19031;DHT22;9648;51.130;13.978;2022-10-16T10:57:29;20.70;99.90
19031;DHT22;9648;51.130;13.978;2022-10-16T11:00:12;20.70;99.90
19031;DHT22;9648;51.130;13.978;2022-10-16T11:02:47;20.80;99.90
19031;DHT22;9648;51.130;13.978;2022-10-16T11:05:31;20.90;99.90
19031;DHT22;9648;51.130;13.978;2022-10-16T11:08:03;21.00;99.90
19031;DHT22;9648;51.130;13.978;2022-10-16T11:10:42;20.90;99.90
19031;DHT22;9648;51.130;13.978;2022-10-16T11:13:18;20.80;99.90
19031;DHT22;9648;51.130;13.978;2022-10-16T11:15:47;20.80;99.90
19031;DHT22;9648;51.130;13.978;2022-10-16T11:18:18;20.90;99.90
19031;DHT22;9648;51.130;13.978;2022-10-16T11:20:50;21.00;99.90
19031;DHT22;9648;51.130;13.978;2022-10-16T11:23:23;21.10;99.90
19031;DHT22;9648;51.130;13.978;2022-10-16T11:25:56;21.10;99.90
19031;DHT22;9648;51.130;13.978;2022-10-16T11:28:28;21.00;99.90
19031;DHT22;9648;51.130;13.978;2022-10-16T11:31:02;20.90;99.90
19031;DHT22;9648;51.130;13.978;2022-10-16T11:33:32;20.80;99.90
19031;DHT22;9648;51.130;13.978;2022-10-16T11:36:08;20.80;99.90
19031;DHT22;9648;51.130;13.978;2022-10-16T11:38:43;20.70;99.90
19031;DHT22;9648;51.130;13.978;2022-10-16T11:41:19;20.60;99.90
19031;DHT22;9648;51.130;13.978;2022-10-16T11:43:52;20.50;99.90
19031;DHT22;9648;51.130;13.978;2022-10-16T11:46:24;20.40;99.90
19031;DHT22;9648;51.130;13.978;2022-10-16T11:48:57;20.40;99.90
19031;DHT22;9648;51.130;13.978;2022-10-16T11:51:33;20.40;99.90
19031;DHT22;9648;51.130;13.978;2022-10-16T11:54:07;20.40;99.90
19031;DHT22;9648;51.130;13.978;2022-10-16T11:56:39;20.50;99.90
19031;DHT22;9648;51.130;13.978;2022-10-16T11:59:13;20.60;99.90
19031;DHT22;9648;51.130;13.978;2022-10-16T12:01:46;20.60;99.90
19031;DHT22;9648;51.130;13.978;2022-10-16T12:04:20;20.80;99.90
19031;DHT22;9648;51.130;13.978;2022-10-16T12:06:50;20.90;99.90
19031;DHT22;9648;51.130;13.978;2022-10-16T12:09:24;21.00;99.90
19031;DHT22;9648;51.130;13.978;2022-10-16T12:11:53;21.10;99.90
19031;DHT22;9648;51.130;13.978;2022-10-16T12:14:36;21.10;99.90
19031;DHT22;9648;51.130;13.978;2022-10-16T12:17:22;21.20;99.90
19031;DHT22;9648;51.130;13.978;2022-10-16T12:19:58;21.30;99.90
19031;DHT22;9648;51.130;13.978;2022-10-16T12:22:27;21.30;99.90
19031;DHT22;9648;51.130;13.978;2022-10-16T12:24:54;21.40;99.90
19031;DHT22;9648;51.130;13.978;2022-10-16T12:27:27;21.50;99.90
19031;DHT22;9648;51.130;13.978;2022-10-16T12:29:56;21.60;99.90
19031;DHT22;9648;51.130;13.978;2022-10-16T12:32:28;21.70;99.90
19031;DHT22;9648;51.130;13.978;2022-10-16T12:34:56;21.80;99.90
19031;DHT22;9648;51.130;13.978;2022-10-16T12:37:25;21.90;99.90
19031;DHT22;9648;51.130;13.978;2022-10-16T12:39:54;21.90;99.90
19031;DHT22;9648;51.130;13.978;2022-10-16T12:42:31;21.70;99.90
19031;DHT22;9648;51.130;13.978;2022-10-16T12:44:59;21.50;99.90
19031;DHT22;9648;51.130;13.978;2022-10-16T12:47:37;21.40;99.90
19031;DHT22;9648;51.130;13.978;2022-10-16T12:50:24;21.20;99.90
19031;DHT22;9648;51.130;13.978;2022-10-16T12:52:52;21.10;99.90
19031;DHT22;9648;51.130;13.978;2022-10-16T12:55:20;21.00;99.90
19031;DHT22;9648;51.130;13.978;2022-10-16T12:58:06;21.10;99.90
19031;DHT22;9648;51.130;13.978;2022-10-16T13:00:42;21.10;99.90
19031;DHT22;9648;51.130;13.978;2022-10-16T13:03:37;21.10;99.90
19031;DHT22;9648;51.130;13.978;2022-10-16T13:06:17;21.00;99.90
19031;DHT22;9648;51.130;13.978;2022-10-16T13:09:08;21.10;99.90
19031;DHT22;9648;51.130;13.978;2022-10-16T13:11:51;21.10;99.90
19031;DHT22;9648;51.130;13.978;2022-10-16T13:14:51;21.20;99.90
19031;DHT22;9648;51.130;13.978;2022-10-16T13:17:25;21.30;99.90
19031;DHT22;9648;51.130;13.978;2022-10-16T13:20:01;21.30;99.90
19031;DHT22;9648;51.130;13.978;2022-10-16T13:22:33;21.30;99.90
19031;DHT22;9648;51.130;13.978;2022-10-16T13:25:17;21.40;99.90
19031;DHT22;9648;51.130;13.978;2022-10-16T13:27:50;21.40;99.90
19031;DHT22;9648;51.130;13.978;2022-10-16T13:30:22;21.30;99.90
19031;DHT22;9648;51.130;13.978;2022-10-16T13:32:53;21.30;99.90
19031;DHT22;9648;51.130;13.978;2022-10-16T13:35:25;21.30;99.90
19031;DHT22;9648;51.130;13.978;2022-10-16T13:38:04;21.10;99.90
19031;DHT22;9648;51.130;13.978;2022-10-16T13:40:31;21.10;99.90
19031;DHT22;9648;51.130;13.978;2022-10-16T13:43:00;21.10;99.90
19031;DHT22;9648;51.130;13.978;2022-10-16T13:45:28;21.10;99.90
19031;DHT22;9648;51.130;13.978;2022-10-16T13:48:02;21.10;99.90
19031;DHT22;9648;51.130;13.978;2022-10-16T13:50:30;21.00;99.90
19031;DHT22;9648;51.130;13.978;2022-10-16T13:53:04;21.00;99.90
19031;DHT22;9648;51.130;13.978;2022-10-16T13:55:31;20.90;99.90
19031;DHT22;9648;51.130;13.978;2022-10-16T13:58:08;20.90;99.90
19031;DHT22;9648;51.130;13.978;2022-10-16T14:00:39;20.80;99.90
19031;DHT22;9648;51.130;13.978;2022-10-16T14:03:13;20.70;99.90
19031;DHT22;9648;51.130;13.978;2022-10-16T14:05:43;20.70;99.90
19031;DHT22;9648;51.130;13.978;2022-10-16T14:08:12;20.80;99.90
19031;DHT22;9648;51.130;13.978;2022-10-16T14:10:39;20.80;99.90
19031;DHT22;9648;51.130;13.978;2022-10-16T14:13:07;20.80;99.90
19031;DHT22;9648;51.130;13.978;2022-10-16T14:15:35;20.70;99.90
19031;DHT22;9648;51.130;13.978;2022-10-16T14:18:04;20.60;99.90
19031;DHT22;9648;51.130;13.978;2022-10-16T14:20:33;20.50;99.90
19031;DHT22;9648;51.130;13.978;2022-10-16T14:23:02;20.40;99.90
19031;DHT22;9648;51.130;13.978;2022-10-16T14:25:31;20.30;99.90
19031;DHT22;9648;51.130;13.978;2022-10-16T14:28:00;20.30;99.90
19031;DHT22;9648;51.130;13.978;2022-10-16T14:30:28;20.30;99.90
19031;DHT22;9648;51.130;13.978;2022-10-16T14:32:57;20.20;99.90
19031;DHT22;9648;51.130;13.978;2022-10-16T14:35:29;20.20;99.90
19031;DHT22;9648;51.130;13.978;2022-10-16T14:37:58;20.10;99.90
19031;DHT22;9648;51.130;13.978;2022-10-16T14:40:27;20.00;99.90
19031;DHT22;9648;51.130;13.978;2022-10-16T14:42:54;20.00;99.90
19031;DHT22;9648;51.130;13.978;2022-10-16T14:45:23;19.90;99.90
19031;DHT22;9648;51.130;13.978;2022-10-16T14:47:53;19.90;99.90
19031;DHT22;9648;51.130;13.978;2022-10-16T14:50:20;19.90;99.90
19031;DHT22;9648;51.130;13.978;2022-10-16T14:52:49;19.80;99.90
19031;DHT22;9648;51.130;13.978;2022-10-16T14:55:16;19.80;99.90
19031;DHT22;9648;51.130;13.978;2022-10-16T14:57:44;19.70;99.90
19031;DHT22;9648;51.130;13.978;2022-10-16T15:00:17;19.60;99.90
19031;DHT22;9648;51.130;13.978;2022-10-16T15:02:44;19.60;99.90
19031;DHT22;9648;51.130;13.978;2022-10-16T15:05:15;19.40;99.90
19031;DHT22;9648;51.130;13.978;2022-10-16T15:07:42;19.30;99.90
19031;DHT22;9648;51.130;13.978;2022-10-16T15:10:11;19.20;99.90
19031;DHT22;9648;51.130;13.978;2022-10-16T15:12:38;19.00;99.90
19031;DHT22;9648;51.130;13.978;2022-10-16T15:15:32;19.00;99.90
19031;DHT22;9648;51.130;13.978;2022-10-16T15:18:00;18.90;99.90
19031;DHT22;9648;51.130;13.978;2022-10-16T15:20:29;18.90;99.90
19031;DHT22;9648;51.130;13.978;2022-10-16T15:22:57;18.80;99.90
19031;DHT22;9648;51.130;13.978;2022-10-16T15:25:31;18.80;99.90
19031;DHT22;9648;51.130;13.978;2022-10-16T15:27:59;18.70;99.90
19031;DHT22;9648;51.130;13.978;2022-10-16T15:30:27;18.60;99.90
19031;DHT22;9648;51.130;13.978;2022-10-16T15:32:54;18.50;99.90
19031;DHT22;9648;51.130;13.978;2022-10-16T15:35:21;18.40;99.90
19031;DHT22;9648;51.130;13.978;2022-10-16T15:37:48;18.30;99.90
19031;DHT22;9648;51.130;13.978;2022-10-16T15:40:16;18.20;99.90
19031;DHT22;9648;51.130;13.978;2022-10-16T15:42:44;18.00;99.90
19031;DHT22;9648;51.130;13.978;2022-10-16T15:45:12;18.00;99.90
19031;DHT22;9648;51.130;13.978;2022-10-16T15:47:40;17.90;99.90
19031;DHT22;9648;51.130;13.978;2022-10-16T15:50:09;17.90;99.90
19031;DHT22;9648;51.130;13.978;2022-10-16T15:52:36;17.90;99.90